Cave In Rock, Illinois
Current Conditions -  °F | °C
As of 3:15 AM on Friday 31 Oct 2014 (Local Time) from K5M9 Reporting Station
Light Rain Light Rain  
Wind Chill: 47°   Ceiling: 4000
Heat Index: 47°   Visibility: 10mi
Dew Point: 46°   Wind: 0mph
Humidity: 93%   Direction: NA
Pressure: 30.01"   Gusts: NA
Location:  37.47°N, 88.17°W
Report Text: K5M9 310815Z AUTO 00000KT 10SM -RA SCT031 OVC040 09/08 A3001 RMK AO2 T00850075
Loading
Personal Weather Stations






























Interactive Weather Map
Tropical Storm Tracking
New forecast layout! Learn more

10-Day Weather Forecast

Advertisements
Track Severe Weather on mobile